Main page
METAR-TAF:

METAR-TAF

Airports :

Seattle / Tacoma, Washington, United States

Seattle–Tacoma International Airport

latitude: 47-26-41N, longitude: 122-18-49W, elevation: 130 m

Current weather observation

The report was made 49 minutes ago, at 19:53 UTC
Wind 9 kt from the North with gusts up to 16 kt
Temperature 25°C
Humidity 39%
Pressure 1022 hPa
Visibility: 16.1 km
Clear sky

METAR: KSEA 231953Z 01009G16KT 10SM CLR 25/10 A3019 RMK AO2 SLP229 T02500100

Time: 13:42 (20:42 UTC)

Forecast

The report was made 3 hours and 12 minutes ago, at 17:30 UTC
Forecast valid from 23 at 18 UTC to 24 at 24 UTC
Wind 8 kt from the North/Northeast
Visibility: 10 km
Clear sky
From 23 at 1900 UTC
Wind 13 kt from the North
Visibility: 10 km
Clear sky
From 24 at 0300 UTC
Wind 9 kt from the North/Northeast
Visibility: 10 km
Clear sky
From 24 at 1800 UTC
Wind 9 kt from the North
Visibility: 10 km
Clear sky

TAF: KSEA 231730Z 2318/2424 02008KT P6SM SKC FM231900 35013KT P6SM SKC FM240300 02009KT P6SM SKC FM241800 36009KT P6SM SKC

Weather observations and forecasts of more than 4000 airports (METAR and TAF reports).

The available stations are represented by yellow and red dots on the map.

Hover mouse over dot to see the name of the station.

Then click to see weather observations and forecasts.

To change the map : click on the green buttons with a black cross to zoom in, on the green button with a dash to zoom out, or on the green arrows for adjacent maps.


METAR-TAF: